Time;durP1;ratioP1;P1;durP2;ratioP2;P2;SDS_P1;SDS_P2;PMS_P1;PMS_P2;Temp;Humidity;BMP_temperature;BMP_pressure;BME280_temperature;BME280_humidity;BME280_pressure;Samples;Min_cycle;Max_cycle;Signal;HPM_P1;HPM_P2
2023/06/14 00:01:09;;;;;;;11.60;10.40;;;20.20;99.90;;;;;;5068535;28;20435;-73
2023/06/14 00:03:35;;;;;;;12.90;10.27;;;20.20;99.90;;;;;;5057942;28;20452;-73
2023/06/14 00:06:01;;;;;;;11.98;10.38;;;20.00;99.90;;;;;;5060908;28;20477;-73
2023/06/14 00:08:27;;;;;;;12.65;10.70;;;19.90;99.90;;;;;;5065753;28;20416;-73
2023/06/14 00:10:54;;;;;;;12.13;10.85;;;19.80;99.90;;;;;;5058556;28;20413;-73
2023/06/14 00:13:20;;;;;;;13.90;9.95;;;19.90;99.90;;;;;;5057614;28;20768;-73
2023/06/14 00:15:47;;;;;;;14.25;10.52;;;19.90;99.90;;;;;;5062375;28;20458;-73
2023/06/14 00:18:14;;;;;;;11.20;10.10;;;19.80;99.90;;;;;;5063438;28;20415;-73
2023/06/14 00:20:41;;;;;;;12.20;10.30;;;19.80;99.90;;;;;;5047986;28;20449;-73
2023/06/14 00:23:08;;;;;;;11.45;10.35;;;19.80;99.90;;;;;;5067561;28;20818;-73
2023/06/14 00:25:34;;;;;;;11.57;10.48;;;19.70;99.90;;;;;;5062108;28;20412;-73
2023/06/14 00:28:01;;;;;;;11.30;10.07;;;19.70;99.90;;;;;;5061883;28;20401;-73
2023/06/14 00:30:30;;;;;;;11.40;10.30;;;19.80;99.90;;;;;;5062117;28;20410;-73
2023/06/14 00:32:57;;;;;;;11.18;9.55;;;19.90;99.90;;;;;;5062956;28;20455;-73
2023/06/14 00:35:23;;;;;;;11.77;9.90;;;19.70;99.90;;;;;;5055959;28;20510;-73
2023/06/14 00:37:50;;;;;;;11.88;10.45;;;19.70;99.90;;;;;;5058349;28;20848;-73
2023/06/14 00:40:16;;;;;;;10.70;9.60;;;19.80;99.90;;;;;;5074771;28;20513;-73
2023/06/14 00:42:45;;;;;;;10.63;9.60;;;19.80;99.90;;;;;;5060866;28;20459;-73
2023/06/14 00:45:11;;;;;;;11.30;10.10;;;19.90;99.90;;;;;;5060380;28;20442;-73
2023/06/14 00:47:40;;;;;;;13.20;9.90;;;19.80;99.90;;;;;;5061234;28;20788;-73
2023/06/14 00:50:08;;;;;;;11.32;10.00;;;19.80;99.90;;;;;;5069283;28;20411;-73
2023/06/14 00:52:36;;;;;;;12.77;10.30;;;19.70;99.90;;;;;;5046379;28;20438;-73
2023/06/14 00:55:03;;;;;;;11.10;9.90;;;19.70;99.90;;;;;;5061121;28;20984;-73
2023/06/14 00:57:29;;;;;;;14.43;10.48;;;19.80;99.90;;;;;;5062075;28;20414;-72
2023/06/14 00:59:56;;;;;;;11.93;10.13;;;19.80;99.90;;;;;;5047322;28;20612;-73
2023/06/14 01:02:24;;;;;;;11.37;9.97;;;19.90;99.90;;;;;;5060917;28;20778;-73
2023/06/14 01:04:52;;;;;;;13.93;10.27;;;19.70;99.90;;;;;;5063523;28;20416;-74
2023/06/14 01:07:28;;;;;;;12.20;10.40;;;19.70;99.90;;;;;;5059333;28;20464;-74
2023/06/14 01:10:28;;;;;;;12.27;9.90;;;19.60;99.90;;;;;;5059325;28;20407;-75
2023/06/14 01:13:03;;;;;;;11.75;9.90;;;19.40;99.90;;;;;;5059236;28;20760;-75
2023/06/14 01:15:32;;;;;;;12.73;10.27;;;19.50;99.90;;;;;;5060598;28;20413;-75
2023/06/14 01:18:08;;;;;;;12.10;10.30;;;19.50;99.90;;;;;;5061889;28;20418;-75
2023/06/14 01:20:37;;;;;;;11.85;10.10;;;19.50;99.90;;;;;;5063500;28;20448;-75
2023/06/14 01:23:04;;;;;;;11.60;10.40;;;19.50;99.90;;;;;;5064925;28;20509;-75
2023/06/14 01:25:30;;;;;;;11.48;10.18;;;19.50;99.90;;;;;;5063047;28;20413;-75
2023/06/14 01:28:04;;;;;;;11.90;10.70;;;19.50;99.90;;;;;;5078129;28;20897;-75
2023/06/14 01:30:33;;;;;;;11.77;10.10;;;19.60;99.90;;;;;;5058321;28;20764;-75
2023/06/14 01:33:00;;;;;;;10.60;9.60;;;19.60;99.90;;;;;;5037622;28;20414;-75
2023/06/14 01:35:26;;;;;;;13.30;10.32;;;19.60;99.90;;;;;;5059420;28;20538;-75
2023/06/14 01:37:54;;;;;;;12.70;10.73;;;19.60;99.90;;;;;;5057922;28;20415;-75
2023/06/14 01:40:22;;;;;;;12.27;9.50;;;19.70;99.90;;;;;;5059112;28;20444;-75
2023/06/14 01:42:51;;;;;;;11.25;9.85;;;19.70;99.90;;;;;;5057508;28;20424;-74
2023/06/14 01:45:20;;;;;;;14.20;10.52;;;19.70;99.90;;;;;;5057772;28;20415;-75
2023/06/14 01:47:47;;;;;;;11.32;10.13;;;19.70;99.90;;;;;;5056495;28;20411;-75
2023/06/14 01:50:14;;;;;;;11.52;10.32;;;19.70;99.90;;;;;;5053438;28;20403;-75
2023/06/14 01:52:40;;;;;;;13.38;10.93;;;19.70;99.90;;;;;;5056408;28;20420;-74
2023/06/14 01:55:07;;;;;;;12.00;10.77;;;19.60;99.90;;;;;;5056522;28;20508;-75
2023/06/14 01:57:34;;;;;;;13.25;10.82;;;19.60;99.90;;;;;;5056406;28;20445;-75
2023/06/14 02:00:00;;;;;;;11.95;10.70;;;19.50;99.90;;;;;;5054729;28;21301;-75
2023/06/14 02:02:27;;;;;;;13.63;10.40;;;19.40;99.90;;;;;;5056049;28;20801;-75
2023/06/14 02:04:57;;;;;;;11.00;9.73;;;19.40;99.90;;;;;;5060972;28;20413;-75
2023/06/14 02:07:24;;;;;;;11.18;9.98;;;19.40;99.90;;;;;;5057894;28;20465;-75
2023/06/14 02:09:50;;;;;;;12.93;10.98;;;19.50;99.90;;;;;;5060428;28;20472;-74
2023/06/14 02:12:16;;;;;;;13.88;10.10;;;19.60;99.90;;;;;;5059976;28;20451;-75
2023/06/14 02:14:44;;;;;;;10.75;9.65;;;19.60;99.90;;;;;;5059500;28;20976;-75
2023/06/14 02:17:10;;;;;;;12.80;10.02;;;19.70;99.90;;;;;;5061847;28;20415;-75
2023/06/14 02:19:36;;;;;;;11.23;9.73;;;19.60;99.90;;;;;;5057486;28;20420;-75
2023/06/14 02:22:03;;;;;;;13.55;9.90;;;19.50;99.90;;;;;;5059440;28;20507;-75
2023/06/14 02:24:29;;;;;;;14.75;10.20;;;19.60;99.90;;;;;;5060751;28;20403;-75
2023/06/14 02:26:55;;;;;;;12.87;10.10;;;19.60;99.90;;;;;;5049106;28;21021;-75
2023/06/14 02:29:22;;;;;;;11.97;10.27;;;19.60;99.90;;;;;;5062387;28;21274;-75
2023/06/14 02:31:48;;;;;;;10.55;9.48;;;19.60;99.90;;;;;;5064013;28;20447;-75
2023/06/14 02:34:17;;;;;;;10.70;9.20;;;19.60;99.90;;;;;;5057989;28;20407;-75
2023/06/14 02:36:45;;;;;;;11.00;9.43;;;19.60;99.90;;;;;;5063546;28;20904;-75
2023/06/14 02:39:11;;;;;;;11.00;8.98;;;19.70;99.90;;;;;;5055445;28;20545;-75
2023/06/14 02:41:38;;;;;;;10.57;9.23;;;19.70;99.90;;;;;;5072005;28;20416;-75
2023/06/14 02:44:05;;;;;;;11.18;8.98;;;19.60;99.90;;;;;;5060352;28;20494;-75
2023/06/14 02:46:31;;;;;;;9.57;8.40;;;19.50;99.90;;;;;;5060785;28;20442;-75
2023/06/14 02:49:00;;;;;;;11.15;9.27;;;19.60;99.90;;;;;;5061342;28;20416;-75
2023/06/14 02:51:26;;;;;;;11.60;9.13;;;19.40;99.90;;;;;;5060493;28;20694;-75
2023/06/14 02:53:52;;;;;;;9.67;8.67;;;19.40;99.90;;;;;;5062649;28;20423;-75
2023/06/14 02:56:19;;;;;;;9.90;8.77;;;19.50;99.90;;;;;;5058080;28;20472;-75
2023/06/14 02:58:46;;;;;;;11.02;8.50;;;19.60;99.90;;;;;;5060215;28;20441;-75
2023/06/14 03:01:13;;;;;;;9.50;7.80;;;19.60;99.90;;;;;;5061276;28;20419;-75
2023/06/14 03:03:40;;;;;;;10.15;8.18;;;19.60;99.90;;;;;;5058985;28;20506;-75
2023/06/14 03:06:08;;;;;;;9.55;8.55;;;19.60;99.90;;;;;;5058758;28;20944;-75
2023/06/14 03:08:38;;;;;;;10.35;8.90;;;19.60;99.90;;;;;;5059114;28;20457;-75
2023/06/14 03:11:05;;;;;;;9.45;8.23;;;19.60;99.90;;;;;;5059065;28;20403;-75
2023/06/14 03:13:32;;;;;;;10.82;8.75;;;19.60;99.90;;;;;;5056529;28;20409;-75
2023/06/14 03:15:58;;;;;;;10.80;8.68;;;19.60;99.90;;;;;;5060763;28;20425;-75
2023/06/14 03:18:24;;;;;;;11.20;8.75;;;19.60;99.90;;;;;;5055035;28;20419;-75
2023/06/14 03:20:51;;;;;;;9.75;8.75;;;19.60;99.90;;;;;;5062556;28;20420;-75
2023/06/14 03:23:17;;;;;;;9.48;8.48;;;19.70;99.90;;;;;;5062558;28;20895;-75
2023/06/14 03:25:43;;;;;;;11.90;8.80;;;19.60;99.90;;;;;;5055622;28;20413;-75
2023/06/14 03:28:10;;;;;;;9.32;8.43;;;19.70;99.90;;;;;;5042080;28;20402;-75
2023/06/14 03:30:36;;;;;;;10.63;9.10;;;19.70;99.90;;;;;;5080611;28;20447;-75
2023/06/14 03:33:02;;;;;;;12.18;9.10;;;19.80;99.90;;;;;;5062940;28;21140;-74
2023/06/14 03:35:29;;;;;;;11.10;8.85;;;19.80;99.90;;;;;;5057781;28;20411;-75
2023/06/14 03:37:55;;;;;;;11.10;8.60;;;19.80;99.90;;;;;;5064304;28;20463;-75
2023/06/14 03:40:25;;;;;;;10.95;9.75;;;19.80;99.90;;;;;;5061088;28;20940;-75
2023/06/14 03:42:51;;;;;;;10.50;9.32;;;19.80;99.90;;;;;;5056744;28;20760;-74
2023/06/14 03:45:17;;;;;;;11.27;9.60;;;19.80;99.90;;;;;;5058284;28;20473;-75
2023/06/14 03:47:44;;;;;;;11.50;8.93;;;19.90;99.90;;;;;;5063391;28;20404;-75
2023/06/14 03:50:11;;;;;;;10.23;9.13;;;19.90;99.90;;;;;;5058548;28;20412;-75
2023/06/14 03:52:37;;;;;;;10.07;8.60;;;19.90;99.90;;;;;;5072105;28;20415;-75
2023/06/14 03:55:04;;;;;;;9.77;8.82;;;19.90;99.90;;;;;;5040704;28;20413;-75
2023/06/14 03:57:31;;;;;;;10.05;8.95;;;19.90;99.90;;;;;;5058611;28;20508;-74
2023/06/14 03:59:57;;;;;;;11.63;9.57;;;19.90;99.90;;;;;;5061094;28;20416;-75
2023/06/14 04:02:23;;;;;;;12.15;8.70;;;19.90;99.90;;;;;;5058150;28;20411;-75
2023/06/14 04:04:51;;;;;;;11.25;8.95;;;19.90;99.90;;;;;;5063277;28;20498;-75
2023/06/14 04:07:19;;;;;;;10.93;9.25;;;19.90;99.90;;;;;;5057770;28;20758;-74
2023/06/14 04:09:46;;;;;;;10.00;9.00;;;19.90;99.90;;;;;;5072437;28;20410;-75
2023/06/14 04:12:12;;;;;;;11.52;9.35;;;20.00;99.90;;;;;;5053705;28;20402;-75
2023/06/14 04:14:42;;;;;;;10.13;8.85;;;20.00;99.90;;;;;;5074812;28;20430;-75
2023/06/14 04:17:08;;;;;;;10.63;8.73;;;20.10;99.90;;;;;;5056321;28;20442;-75
2023/06/14 04:19:34;;;;;;;14.90;9.13;;;20.20;99.90;;;;;;5072716;28;20436;-75
2023/06/14 04:22:02;;;;;;;12.20;9.20;;;20.20;99.90;;;;;;5051497;28;20416;-75
2023/06/14 04:24:31;;;;;;;10.88;8.57;;;20.30;99.90;;;;;;5052333;28;20500;-75
2023/06/14 04:27:01;;;;;;;11.30;8.98;;;20.40;99.90;;;;;;5045864;28;20500;-75
2023/06/14 04:29:29;;;;;;;10.20;8.45;;;20.40;99.90;;;;;;5062336;28;20515;-75
2023/06/14 04:31:59;;;;;;;9.90;8.20;;;20.50;99.90;;;;;;5053697;28;20545;-75
2023/06/14 04:34:33;;;;;;;12.07;8.30;;;20.60;99.90;;;;;;5056716;28;20419;-75
2023/06/14 04:37:01;;;;;;;10.77;8.18;;;20.60;99.90;;;;;;5054344;28;20424;-75
2023/06/14 04:39:27;;;;;;;9.65;8.25;;;20.60;99.90;;;;;;5055477;28;20411;-75
2023/06/14 04:41:56;;;;;;;9.20;7.93;;;20.70;99.90;;;;;;5058913;28;20435;-75
2023/06/14 04:44:29;;;;;;;11.23;8.20;;;20.60;99.90;;;;;;5056236;28;20782;-75
2023/06/14 04:46:59;;;;;;;8.23;7.40;;;20.70;99.90;;;;;;5058808;28;20990;-75
2023/06/14 04:49:27;;;;;;;10.30;8.25;;;20.70;99.90;;;;;;5058687;28;20408;-75
2023/06/14 04:51:59;;;;;;;9.55;8.60;;;20.80;99.90;;;;;;5062515;28;20427;-75
2023/06/14 04:54:25;;;;;;;9.95;8.27;;;20.80;99.90;;;;;;5056680;28;20822;-75
2023/06/14 04:56:53;;;;;;;8.90;8.00;;;20.90;99.90;;;;;;5051534;28;20412;-74
2023/06/14 04:59:19;;;;;;;9.65;8.13;;;20.90;99.90;;;;;;5057857;28;20743;-75
2023/06/14 05:01:48;;;;;;;8.82;7.55;;;20.90;99.90;;;;;;5060517;28;20498;-75
2023/06/14 05:04:18;;;;;;;9.63;8.32;;;20.90;99.90;;;;;;5052927;28;20411;-75
2023/06/14 05:06:46;;;;;;;10.82;7.85;;;21.00;99.90;;;;;;5052854;28;20433;-75
2023/06/14 05:09:15;;;;;;;9.85;8.00;;;21.00;99.90;;;;;;5050698;28;20492;-76
2023/06/14 05:11:44;;;;;;;9.65;7.80;;;21.10;99.90;;;;;;5071378;28;20428;-75
2023/06/14 05:14:14;;;;;;;7.90;7.20;;;21.10;99.90;;;;;;5071025;28;20404;-75
2023/06/14 05:16:41;;;;;;;9.50;7.33;;;21.10;99.90;;;;;;5060794;28;20521;-75
2023/06/14 05:19:07;;;;;;;8.60;7.15;;;21.10;99.90;;;;;;5059330;28;20411;-75
2023/06/14 05:21:34;;;;;;;9.73;7.32;;;21.20;99.90;;;;;;5056605;28;20417;-75
2023/06/14 05:24:01;;;;;;;10.60;7.38;;;21.20;99.90;;;;;;5060513;28;20510;-75
2023/06/14 05:26:30;;;;;;;14.38;7.00;;;21.20;99.90;;;;;;5058153;28;20411;-75
2023/06/14 05:28:57;;;;;;;8.90;7.17;;;21.30;99.90;;;;;;5055923;28;21116;-75
2023/06/14 05:31:25;;;;;;;10.00;7.03;;;21.40;99.90;;;;;;5050548;28;20858;-75
2023/06/14 05:33:52;;;;;;;8.75;7.15;;;21.40;99.90;;;;;;5054560;28;20419;-75
2023/06/14 05:36:21;;;;;;;7.25;6.55;;;21.40;99.90;;;;;;5062633;28;20435;-75
2023/06/14 05:38:47;;;;;;;10.00;7.15;;;21.40;99.90;;;;;;5058111;28;20427;-75
2023/06/14 05:41:14;;;;;;;7.90;7.10;;;21.50;99.90;;;;;;5058716;28;20494;-75
2023/06/14 05:43:40;;;;;;;7.93;6.70;;;21.60;99.90;;;;;;5062281;28;20420;-75
2023/06/14 05:46:07;;;;;;;9.18;7.00;;;21.60;99.90;;;;;;5056545;28;20901;-75
2023/06/14 05:48:33;;;;;;;10.77;7.03;;;21.60;99.90;;;;;;5054616;28;20427;-75
2023/06/14 05:51:00;;;;;;;8.18;6.47;;;21.70;99.90;;;;;;5055668;28;20510;-75
2023/06/14 05:53:26;;;;;;;8.70;6.68;;;21.80;99.90;;;;;;5061089;28;20409;-75
2023/06/14 05:55:54;;;;;;;7.97;6.63;;;21.80;99.90;;;;;;5057187;28;20503;-75
2023/06/14 05:58:21;;;;;;;7.57;6.07;;;21.80;99.90;;;;;;5054908;28;20458;-75
2023/06/14 06:00:48;;;;;;;7.22;5.40;;;21.90;99.90;;;;;;5053708;28;20501;-75
2023/06/14 06:03:14;;;;;;;8.88;6.03;;;22.00;99.90;;;;;;5053482;28;20793;-75
2023/06/14 06:05:40;;;;;;;8.20;5.40;;;22.00;99.90;;;;;;5052666;28;20407;-75
2023/06/14 06:08:06;;;;;;;6.72;5.75;;;22.00;99.90;;;;;;5054664;28;20498;-75
2023/06/14 06:10:33;;;;;;;10.73;5.85;;;22.10;99.90;;;;;;5059253;28;20445;-75
2023/06/14 06:12:59;;;;;;;8.75;5.60;;;22.30;99.90;;;;;;5045087;28;21193;-75
2023/06/14 06:15:25;;;;;;;9.77;5.80;;;22.40;99.90;;;;;;5059074;28;20401;-75
2023/06/14 06:17:52;;;;;;;8.00;5.72;;;22.50;99.90;;;;;;5057812;28;20410;-75
2023/06/14 06:20:18;;;;;;;6.50;5.65;;;22.60;99.90;;;;;;5055199;28;20411;-75
2023/06/14 06:22:44;;;;;;;8.68;5.25;;;22.60;99.90;;;;;;5058567;28;20814;-75
2023/06/14 06:25:10;;;;;;;8.35;4.80;;;22.60;99.90;;;;;;5056092;28;20948;-75
2023/06/14 06:27:37;;;;;;;5.60;5.00;;;22.50;99.90;;;;;;5056004;28;20412;-75
2023/06/14 06:30:05;;;;;;;8.48;5.10;;;22.50;99.90;;;;;;5056109;28;20544;-75
2023/06/14 06:32:31;;;;;;;7.68;5.18;;;22.60;99.90;;;;;;5049740;28;20411;-75
2023/06/14 06:35:00;;;;;;;7.50;5.10;;;22.70;99.90;;;;;;5053133;28;20419;-75
2023/06/14 06:37:26;;;;;;;5.93;4.45;;;22.70;99.90;;;;;;5064395;28;20396;-75
2023/06/14 06:39:52;;;;;;;5.30;4.53;;;22.70;99.90;;;;;;5051345;28;20434;-75
2023/06/14 06:42:19;;;;;;;8.93;4.70;;;22.80;99.90;;;;;;5069925;28;20428;-75
2023/06/14 06:44:45;;;;;;;5.88;4.80;;;22.90;99.90;;;;;;5051015;28;20433;-75
2023/06/14 06:47:14;;;;;;;6.10;4.72;;;23.00;99.90;;;;;;5054988;28;20445;-74
2023/06/14 06:49:40;;;;;;;7.82;4.60;;;23.10;99.90;;;;;;5051228;28;20420;-74
2023/06/14 06:52:07;;;;;;;7.38;4.70;;;23.20;99.90;;;;;;5050867;28;20931;-74
2023/06/14 06:54:35;;;;;;;7.03;4.57;;;23.40;99.90;;;;;;5053970;28;20952;-74
2023/06/14 06:57:01;;;;;;;5.13;4.20;;;23.50;99.90;;;;;;5042510;28;20464;-74
2023/06/14 06:59:28;;;;;;;5.40;4.28;;;23.70;99.90;;;;;;5050889;28;20917;-74
2023/06/14 07:01:54;;;;;;;7.28;4.28;;;23.80;99.90;;;;;;5052748;28;20961;-74
2023/06/14 07:04:20;;;;;;;6.60;4.43;;;23.90;99.90;;;;;;5072685;28;20432;-74
2023/06/14 07:06:47;;;;;;;7.17;4.50;;;23.80;99.90;;;;;;5043726;28;20960;-74
2023/06/14 07:09:15;;;;;;;6.22;4.25;;;23.80;99.90;;;;;;5057557;28;20415;-74
2023/06/14 07:11:45;;;;;;;5.63;4.32;;;24.00;99.90;;;;;;5055856;28;20957;-74
2023/06/14 07:14:11;;;;;;;6.90;4.28;;;24.00;99.90;;;;;;5054655;28;20419;-74
2023/06/14 07:16:38;;;;;;;6.35;4.57;;;24.10;99.90;;;;;;5052034;28;20417;-74
2023/06/14 07:19:05;;;;;;;5.93;4.38;;;24.30;99.90;;;;;;5055608;28;20453;-74
2023/06/14 07:21:31;;;;;;;6.93;4.03;;;24.30;99.90;;;;;;5057146;28;20516;-74
2023/06/14 07:23:57;;;;;;;7.25;3.80;;;24.40;99.90;;;;;;5051550;28;20429;-74
2023/06/14 07:26:24;;;;;;;6.32;3.97;;;24.40;99.90;;;;;;5052036;28;20436;-74
2023/06/14 07:28:51;;;;;;;6.00;3.78;;;24.40;99.90;;;;;;5055625;28;20536;-74
2023/06/14 07:31:19;;;;;;;6.33;3.67;;;24.50;99.90;;;;;;5050805;28;20420;-74
2023/06/14 07:33:45;;;;;;;5.03;3.70;;;24.50;99.90;;;;;;5052930;28;20459;-74
2023/06/14 07:36:12;;;;;;;6.55;3.70;;;24.60;99.90;;;;;;5057251;28;20502;-74
2023/06/14 07:38:40;;;;;;;4.57;3.50;;;24.70;99.90;;;;;;5051060;28;21158;-74
2023/06/14 07:41:06;;;;;;;6.15;3.40;;;24.90;99.90;;;;;;5052591;28;20415;-74
2023/06/14 07:43:32;;;;;;;6.78;3.45;;;25.00;99.90;;;;;;5067038;28;20436;-74
2023/06/14 07:45:59;;;;;;;4.32;3.00;;;25.10;99.90;;;;;;5039411;28;20413;-74
2023/06/14 07:48:25;;;;;;;4.63;3.10;;;25.10;99.90;;;;;;5059893;28;20421;-74
2023/06/14 07:50:51;;;;;;;5.80;2.90;;;25.20;99.90;;;;;;5053971;28;20414;-74
2023/06/14 07:53:17;;;;;;;8.00;3.13;;;25.20;99.90;;;;;;5049394;28;20837;-74
2023/06/14 07:55:44;;;;;;;7.32;3.60;;;25.20;99.90;;;;;;5057237;28;20549;-74
2023/06/14 07:58:10;;;;;;;7.13;3.00;;;25.30;99.90;;;;;;5044275;28;20202;-74
2023/06/14 08:00:37;;;;;;;5.32;2.88;;;25.40;99.90;;;;;;5055835;28;20197;-74
2023/06/14 08:03:04;;;;;;;5.47;3.17;;;25.50;99.90;;;;;;5040781;28;20215;-74
2023/06/14 08:05:31;;;;;;;6.70;3.05;;;25.60;99.90;;;;;;5048645;28;20309;-74
2023/06/14 08:07:57;;;;;;;5.53;3.00;;;25.70;99.90;;;;;;5046891;28;20182;-74
2023/06/14 08:10:24;;;;;;;2.90;2.60;;;25.80;99.90;;;;;;5052887;28;20221;-74
2023/06/14 08:12:50;;;;;;;5.45;3.00;;;25.90;99.90;;;;;;5066105;28;20180;-74
2023/06/14 08:15:17;;;;;;;4.45;2.70;;;26.00;99.90;;;;;;5057239;28;20815;-74
2023/06/14 08:17:45;;;;;;;5.47;3.10;;;26.00;99.90;;;;;;5049131;28;20182;-74
2023/06/14 08:20:13;;;;;;;4.47;2.50;;;26.00;99.90;;;;;;5052572;28;20229;-74
2023/06/14 08:22:42;;;;;;;4.88;2.75;;;26.10;99.90;;;;;;5071221;28;20215;-74
2023/06/14 08:25:09;;;;;;;5.88;2.53;;;26.20;99.90;;;;;;5052399;28;20244;-74
2023/06/14 08:27:39;;;;;;;3.55;2.58;;;26.30;99.90;;;;;;5054503;28;20340;-74
2023/06/14 08:30:08;;;;;;;4.82;2.78;;;26.40;99.90;;;;;;5056171;28;20179;-74
2023/06/14 08:32:34;;;;;;;8.30;2.67;;;26.50;99.90;;;;;;5060973;28;20705;-74
2023/06/14 08:35:00;;;;;;;3.83;2.50;;;26.60;99.90;;;;;;5061139;28;20749;-74
2023/06/14 08:37:26;;;;;;;6.05;2.97;;;26.70;99.90;;;;;;5061288;28;20194;-74
2023/06/14 08:39:53;;;;;;;2.95;2.42;;;26.70;99.90;;;;;;5055142;28;20265;-74
2023/06/14 08:42:23;;;;;;;4.93;2.70;;;26.90;99.90;;;;;;5042883;28;20303;-75
2023/06/14 08:44:50;;;;;;;4.28;2.60;;;26.90;99.90;;;;;;5068965;28;20241;-74
2023/06/14 08:47:18;;;;;;;7.18;2.67;;;26.90;99.90;;;;;;5061610;28;20198;-74
2023/06/14 08:49:49;;;;;;;3.83;2.50;;;27.00;99.90;;;;;;5054487;28;20187;-74
2023/06/14 08:52:21;;;;;;;5.35;2.80;;;27.00;99.90;;;;;;5066114;28;20206;-74
2023/06/14 08:54:48;;;;;;;5.05;2.50;;;27.10;99.90;;;;;;5048111;28;20687;-74
2023/06/14 08:57:16;;;;;;;7.95;2.78;;;27.20;99.90;;;;;;5047766;28;20198;-74
2023/06/14 08:59:53;;;;;;;4.25;2.50;;;27.40;99.90;;;;;;5039585;28;20282;-74
2023/06/14 09:02:22;;;;;;;5.43;2.35;;;27.40;99.90;;;;;;5058766;28;20610;-74
2023/06/14 09:04:49;;;;;;;4.60;2.33;;;27.60;99.90;;;;;;5049732;28;20272;-74
2023/06/14 09:07:16;;;;;;;7.45;2.55;;;27.70;99.90;;;;;;5058564;28;20191;-74
2023/06/14 09:09:42;;;;;;;3.60;2.60;;;27.80;99.90;;;;;;5049700;28;20184;-74
2023/06/14 09:12:12;;;;;;;6.40;2.53;;;27.80;99.90;;;;;;5049743;28;20184;-74
2023/06/14 09:14:40;;;;;;;3.78;2.70;;;27.90;99.90;;;;;;5052691;28;20190;-74
2023/06/14 09:17:07;;;;;;;5.57;2.97;;;28.00;99.90;;;;;;5053718;28;20653;-74
2023/06/14 09:19:37;;;;;;;3.83;2.53;;;28.10;99.90;;;;;;5047407;28;20189;-74
2023/06/14 09:22:04;;;;;;;7.22;2.97;;;28.20;99.90;;;;;;5051181;28;20184;-74
2023/06/14 09:24:31;;;;;;;4.18;2.55;;;28.10;99.90;;;;;;5066785;28;20197;-74
2023/06/14 09:26:58;;;;;;;5.88;2.65;;;28.00;99.90;;;;;;5055929;28;20217;-74
2023/06/14 09:29:24;;;;;;;4.30;2.35;;;28.20;99.90;;;;;;5050705;28;20183;-74
2023/06/14 09:31:52;;;;;;;5.18;2.60;;;28.30;99.90;;;;;;5053564;28;20187;-74
2023/06/14 09:34:20;;;;;;;6.75;2.45;;;28.20;99.90;;;;;;5055363;28;20974;-74
2023/06/14 09:36:47;;;;;;;4.97;2.47;;;28.10;99.90;;;;;;5052467;28;20246;-74
2023/06/14 09:39:18;;;;;;;3.28;2.40;;;28.10;99.90;;;;;;5052221;28;20284;-74
2023/06/14 09:41:44;;;;;;;4.20;2.50;;;28.00;99.90;;;;;;5056205;28;20443;-74
2023/06/14 09:44:14;;;;;;;4.85;2.35;;;28.20;99.90;;;;;;5058602;28;20211;-74
2023/06/14 09:46:40;;;;;;;3.90;2.30;;;28.20;99.90;;;;;;5057512;28;20420;-74
2023/06/14 09:49:08;;;;;;;3.85;2.38;;;28.30;99.90;;;;;;5064535;28;20554;-74
2023/06/14 09:51:43;;;;;;;6.38;2.60;;;28.80;99.90;;;;;;5060607;28;21356;-74
2023/06/14 09:54:18;;;;;;;6.43;2.50;;;28.80;99.90;;;;;;5054201;28;20451;-74
2023/06/14 09:56:47;;;;;;;6.50;2.33;;;28.70;99.90;;;;;;5061575;28;20413;-74
2023/06/14 09:59:20;;;;;;;6.50;2.50;;;28.70;99.90;;;;;;5058674;28;20414;-74
2023/06/14 10:01:48;;;;;;;4.40;2.13;;;28.80;99.90;;;;;;5055527;28;20738;-75
2023/06/14 10:04:22;;;;;;;3.47;2.45;;;28.80;99.90;;;;;;5052077;28;20433;-74
2023/06/14 10:06:51;;;;;;;4.65;2.30;;;28.80;99.90;;;;;;5050963;28;20445;-74
2023/06/14 10:09:18;;;;;;;2.95;2.20;;;29.00;99.90;;;;;;5054120;28;20412;-74
2023/06/14 10:11:46;;;;;;;5.45;2.28;;;29.10;99.90;;;;;;5055616;28;21313;-75
2023/06/14 10:14:14;;;;;;;5.50;2.40;;;29.20;99.90;;;;;;5052232;28;20416;-75
2023/06/14 10:17:10;;;;;;;3.90;2.28;;;29.10;99.90;;;;;;5054762;28;20413;-75
2023/06/14 10:19:55;;;;;;;5.35;2.22;;;28.80;99.90;;;;;;5047242;28;20413;-75
2023/06/14 10:22:55;;;;;;;4.28;2.30;;;28.80;99.90;;;;;;5059139;28;20417;-74
2023/06/14 10:25:30;;;;;;;5.43;2.50;;;28.60;99.90;;;;;;5050754;28;20406;-75
2023/06/14 10:28:22;;;;;;;4.28;2.20;;;28.50;99.90;;;;;;5054115;28;20572;-75
2023/06/14 10:31:13;;;;;;;4.32;2.40;;;28.40;99.90;;;;;;5048798;28;20454;-74
2023/06/14 10:33:56;;;;;;;4.43;2.35;;;28.30;99.90;;;;;;5048614;28;20442;-74
2023/06/14 10:36:34;;;;;;;5.05;2.00;;;28.40;99.90;;;;;;5038516;28;20484;-75
2023/06/14 10:39:19;;;;;;;3.20;2.15;;;28.60;99.90;;;;;;5052654;28;20479;-74
2023/06/14 10:41:57;;;;;;;3.75;1.98;;;28.70;99.90;;;;;;5048175;28;20405;-74
2023/06/14 10:44:23;;;;;;;9.60;2.53;;;28.80;99.90;;;;;;5055897;28;20428;-74
2023/06/14 10:46:52;;;;;;;5.07;2.80;;;28.80;99.90;;;;;;5053262;28;20776;-74
2023/06/14 10:49:20;;;;;;;6.03;2.45;;;28.60;99.90;;;;;;5057869;28;20492;-74
2023/06/14 10:51:58;;;;;;;5.32;2.00;;;28.60;99.90;;;;;;5056634;28;21110;-74
2023/06/14 10:54:27;;;;;;;3.30;2.35;;;28.50;99.90;;;;;;5052222;28;20445;-74
2023/06/14 10:56:54;;;;;;;4.33;2.77;;;28.40;99.90;;;;;;5062965;28;20451;-74
2023/06/14 10:59:21;;;;;;;5.28;2.63;;;28.30;99.90;;;;;;5069475;28;20424;-74
2023/06/14 11:02:08;;;;;;;4.28;2.45;;;28.30;99.90;;;;;;5065104;28;20516;-74
2023/06/14 11:04:53;;;;;;;5.85;2.75;;;28.30;99.90;;;;;;5056517;28;20839;-75
2023/06/14 11:07:53;;;;;;;4.50;2.83;;;28.30;99.90;;;;;;5059731;28;20409;-74
2023/06/14 11:10:42;;;;;;;6.75;2.75;;;28.10;99.90;;;;;;5057838;28;20407;-74
2023/06/14 11:13:09;;;;;;;5.65;2.90;;;27.80;99.90;;;;;;5063758;28;20806;-75
2023/06/14 11:15:45;;;;;;;6.05;2.70;;;27.70;99.90;;;;;;5054875;28;20407;-74
2023/06/14 11:18:13;;;;;;;4.13;2.70;;;27.70;99.90;;;;;;5052538;28;20415;-74
2023/06/14 11:20:44;;;;;;;5.25;2.63;;;27.70;99.90;;;;;;5054865;28;20953;-74
2023/06/14 11:23:10;;;;;;;5.10;2.67;;;27.70;99.90;;;;;;5060724;28;20442;-74
2023/06/14 11:25:36;;;;;;;4.05;2.75;;;27.60;99.90;;;;;;5060847;28;20878;-74
2023/06/14 11:28:03;;;;;;;5.40;2.90;;;27.60;99.90;;;;;;5046014;28;20400;-74
2023/06/14 11:30:29;;;;;;;4.40;2.65;;;27.60;99.90;;;;;;5053774;28;20408;-74
2023/06/14 11:32:57;;;;;;;3.67;2.50;;;27.70;99.90;;;;;;5057193;28;20500;-74
2023/06/14 11:35:24;;;;;;;7.32;2.92;;;27.50;99.90;;;;;;5075042;28;20474;-74
2023/06/14 11:37:57;;;;;;;6.63;2.92;;;27.50;99.90;;;;;;5067785;28;20844;-74
2023/06/14 11:40:28;;;;;;;5.43;2.85;;;27.50;99.90;;;;;;5070498;28;20426;-74
2023/06/14 11:43:02;;;;;;;4.40;2.92;;;27.60;99.90;;;;;;5056653;28;20830;-74
2023/06/14 11:45:30;;;;;;;3.78;2.75;;;27.70;99.90;;;;;;5048262;28;20408;-74
2023/06/14 11:48:01;;;;;;;9.05;2.90;;;27.60;99.90;;;;;;5052082;28;21086;-74
2023/06/14 11:50:28;;;;;;;10.18;2.88;;;27.70;99.90;;;;;;5050650;28;20448;-74
2023/06/14 11:52:57;;;;;;;5.93;2.90;;;27.70;99.90;;;;;;5064176;28;20412;-74
2023/06/14 11:55:24;;;;;;;5.70;2.70;;;27.60;99.90;;;;;;5054507;28;20468;-74
2023/06/14 11:57:51;;;;;;;7.00;3.10;;;27.50;99.90;;;;;;5048367;28;20413;-74
2023/06/14 12:00:18;;;;;;;6.70;3.08;;;27.60;99.90;;;;;;5058701;28;20437;-74
2023/06/14 12:02:57;;;;;;;5.38;2.90;;;27.60;99.90;;;;;;5042937;28;20415;-74
2023/06/14 12:05:26;;;;;;;6.13;3.10;;;27.60;99.90;;;;;;5058210;28;20403;-74
2023/06/14 12:08:00;;;;;;;5.70;2.80;;;27.60;99.90;;;;;;5061236;28;20426;-74
2023/06/14 12:10:29;;;;;;;7.45;3.30;;;27.60;99.90;;;;;;5068305;28;20423;-74
2023/06/14 12:12:59;;;;;;;8.05;3.15;;;27.60;99.90;;;;;;5056277;28;20419;-74
2023/06/14 12:15:31;;;;;;;6.37;3.33;;;27.60;99.90;;;;;;5059993;28;20516;-74
2023/06/14 12:17:58;;;;;;;7.65;3.13;;;27.60;99.90;;;;;;5058777;28;20442;-74
2023/06/14 12:20:30;;;;;;;9.20;3.15;;;27.60;99.90;;;;;;5057655;28;20451;-74
2023/06/14 12:23:03;;;;;;;6.93;3.50;;;27.50;99.90;;;;;;5057317;28;20439;-74
2023/06/14 12:25:36;;;;;;;6.22;3.40;;;27.50;99.90;;;;;;5057218;28;20422;-74
2023/06/14 12:28:08;;;;;;;11.80;3.67;;;27.50;99.90;;;;;;5055023;28;20430;-74
2023/06/14 12:30:38;;;;;;;7.53;3.53;;;27.60;99.90;;;;;;5062671;28;20414;-74
2023/06/14 12:33:05;;;;;;;8.55;3.47;;;27.60;99.90;;;;;;5068192;28;20481;-74
2023/06/14 12:35:32;;;;;;;10.52;4.00;;;27.50;99.90;;;;;;5052063;28;21076;-74
2023/06/14 12:37:58;;;;;;;10.35;3.80;;;27.60;99.90;;;;;;5057341;28;20500;-75
2023/06/14 12:40:26;;;;;;;8.77;3.92;;;27.50;99.90;;;;;;5055219;28;20896;-74
2023/06/14 12:42:52;;;;;;;10.93;4.45;;;27.60;99.90;;;;;;5057931;28;20417;-74
2023/06/14 12:45:18;;;;;;;10.63;4.00;;;27.50;99.90;;;;;;5046418;28;20401;-74
2023/06/14 12:47:45;;;;;;;8.10;3.95;;;27.40;99.90;;;;;;5051865;28;20559;-74